sensor_id;sensor_type;location;lat;lon;timestamp;P1;durP1;ratioP1;P2;durP2;ratioP2
8466;SDS011;4270;48.148;11.648;2024-01-10T00:01:22;38.50;;;17.13;;
8466;SDS011;4270;48.148;11.648;2024-01-10T00:03:51;46.23;;;21.23;;
8466;SDS011;4270;48.148;11.648;2024-01-10T00:06:17;40.47;;;19.37;;
8466;SDS011;4270;48.148;11.648;2024-01-10T00:08:42;38.83;;;16.53;;
8466;SDS011;4270;48.148;11.648;2024-01-10T00:11:07;42.20;;;17.10;;
8466;SDS011;4270;48.148;11.648;2024-01-10T00:13:33;35.10;;;18.30;;
8466;SDS011;4270;48.148;11.648;2024-01-10T00:15:58;38.70;;;16.53;;
8466;SDS011;4270;48.148;11.648;2024-01-10T00:18:24;40.97;;;17.57;;
8466;SDS011;4270;48.148;11.648;2024-01-10T00:20:49;38.50;;;15.27;;
8466;SDS011;4270;48.148;11.648;2024-01-10T00:23:14;41.67;;;15.60;;
8466;SDS011;4270;48.148;11.648;2024-01-10T00:25:39;40.83;;;19.57;;
8466;SDS011;4270;48.148;11.648;2024-01-10T00:28:05;30.73;;;15.27;;
8466;SDS011;4270;48.148;11.648;2024-01-10T00:30:30;31.53;;;16.60;;
8466;SDS011;4270;48.148;11.648;2024-01-10T00:32:55;32.27;;;15.83;;
8466;SDS011;4270;48.148;11.648;2024-01-10T00:35:21;37.07;;;15.53;;
8466;SDS011;4270;48.148;11.648;2024-01-10T00:37:46;40.20;;;17.40;;
8466;SDS011;4270;48.148;11.648;2024-01-10T00:40:11;34.73;;;15.67;;
8466;SDS011;4270;48.148;11.648;2024-01-10T00:42:36;33.77;;;17.90;;
8466;SDS011;4270;48.148;11.648;2024-01-10T00:45:01;38.30;;;17.87;;
8466;SDS011;4270;48.148;11.648;2024-01-10T00:47:27;39.97;;;19.93;;
8466;SDS011;4270;48.148;11.648;2024-01-10T00:49:52;37.13;;;16.60;;
8466;SDS011;4270;48.148;11.648;2024-01-10T00:52:18;32.20;;;19.10;;
8466;SDS011;4270;48.148;11.648;2024-01-10T00:54:43;37.07;;;18.10;;
8466;SDS011;4270;48.148;11.648;2024-01-10T00:57:09;35.57;;;17.30;;
8466;SDS011;4270;48.148;11.648;2024-01-10T00:59:34;38.77;;;21.13;;
8466;SDS011;4270;48.148;11.648;2024-01-10T01:01:59;33.70;;;18.03;;
8466;SDS011;4270;48.148;11.648;2024-01-10T01:04:25;30.07;;;16.40;;
8466;SDS011;4270;48.148;11.648;2024-01-10T01:06:50;37.47;;;18.10;;
8466;SDS011;4270;48.148;11.648;2024-01-10T01:09:15;41.77;;;18.93;;
8466;SDS011;4270;48.148;11.648;2024-01-10T01:11:40;31.97;;;17.13;;
8466;SDS011;4270;48.148;11.648;2024-01-10T01:14:06;31.90;;;18.97;;
8466;SDS011;4270;48.148;11.648;2024-01-10T01:16:31;35.43;;;18.70;;
8466;SDS011;4270;48.148;11.648;2024-01-10T01:18:56;33.20;;;16.27;;
8466;SDS011;4270;48.148;11.648;2024-01-10T01:21:21;34.57;;;16.57;;
8466;SDS011;4270;48.148;11.648;2024-01-10T01:23:47;32.30;;;15.77;;
8466;SDS011;4270;48.148;11.648;2024-01-10T01:26:12;40.13;;;17.10;;
8466;SDS011;4270;48.148;11.648;2024-01-10T01:28:39;29.90;;;15.73;;
8466;SDS011;4270;48.148;11.648;2024-01-10T01:31:04;29.90;;;13.90;;
8466;SDS011;4270;48.148;11.648;2024-01-10T01:33:29;36.40;;;16.47;;
8466;SDS011;4270;48.148;11.648;2024-01-10T01:35:55;34.33;;;17.43;;
8466;SDS011;4270;48.148;11.648;2024-01-10T01:38:20;34.77;;;14.00;;
8466;SDS011;4270;48.148;11.648;2024-01-10T01:40:45;32.30;;;16.37;;
8466;SDS011;4270;48.148;11.648;2024-01-10T01:43:20;42.40;;;17.90;;
8466;SDS011;4270;48.148;11.648;2024-01-10T01:45:57;35.70;;;17.30;;
8466;SDS011;4270;48.148;11.648;2024-01-10T01:48:23;36.10;;;19.17;;
8466;SDS011;4270;48.148;11.648;2024-01-10T01:50:50;33.13;;;16.57;;
8466;SDS011;4270;48.148;11.648;2024-01-10T01:53:16;33.80;;;15.90;;
8466;SDS011;4270;48.148;11.648;2024-01-10T01:55:42;39.20;;;14.40;;
8466;SDS011;4270;48.148;11.648;2024-01-10T01:58:08;32.37;;;14.70;;
8466;SDS011;4270;48.148;11.648;2024-01-10T02:00:34;35.93;;;17.53;;
8466;SDS011;4270;48.148;11.648;2024-01-10T02:02:59;36.17;;;15.67;;
8466;SDS011;4270;48.148;11.648;2024-01-10T02:05:25;32.53;;;14.47;;
8466;SDS011;4270;48.148;11.648;2024-01-10T02:07:51;39.13;;;15.80;;
8466;SDS011;4270;48.148;11.648;2024-01-10T02:10:16;32.63;;;14.57;;
8466;SDS011;4270;48.148;11.648;2024-01-10T02:12:41;36.77;;;13.80;;
8466;SDS011;4270;48.148;11.648;2024-01-10T02:15:06;33.33;;;14.80;;
8466;SDS011;4270;48.148;11.648;2024-01-10T02:17:32;36.07;;;17.80;;
8466;SDS011;4270;48.148;11.648;2024-01-10T02:22:34;33.53;;;15.30;;
8466;SDS011;4270;48.148;11.648;2024-01-10T02:25:00;39.50;;;16.83;;
8466;SDS011;4270;48.148;11.648;2024-01-10T02:27:25;36.23;;;15.37;;
8466;SDS011;4270;48.148;11.648;2024-01-10T02:29:50;35.47;;;14.60;;
8466;SDS011;4270;48.148;11.648;2024-01-10T02:32:16;35.07;;;14.10;;
8466;SDS011;4270;48.148;11.648;2024-01-10T02:34:41;39.77;;;16.87;;
8466;SDS011;4270;48.148;11.648;2024-01-10T02:37:06;46.90;;;17.60;;
8466;SDS011;4270;48.148;11.648;2024-01-10T02:39:32;37.27;;;15.53;;
8466;SDS011;4270;48.148;11.648;2024-01-10T02:41:57;39.80;;;16.00;;
8466;SDS011;4270;48.148;11.648;2024-01-10T02:44:22;46.33;;;17.70;;
8466;SDS011;4270;48.148;11.648;2024-01-10T02:46:48;42.10;;;17.07;;
8466;SDS011;4270;48.148;11.648;2024-01-10T02:49:13;37.07;;;15.47;;
8466;SDS011;4270;48.148;11.648;2024-01-10T02:51:38;33.73;;;16.37;;
8466;SDS011;4270;48.148;11.648;2024-01-10T02:54:04;44.73;;;17.37;;
8466;SDS011;4270;48.148;11.648;2024-01-10T02:56:29;40.87;;;16.83;;
8466;SDS011;4270;48.148;11.648;2024-01-10T02:58:54;35.53;;;15.23;;
8466;SDS011;4270;48.148;11.648;2024-01-10T03:01:19;44.00;;;17.73;;
8466;SDS011;4270;48.148;11.648;2024-01-10T03:03:45;36.83;;;15.93;;
8466;SDS011;4270;48.148;11.648;2024-01-10T03:06:10;38.10;;;15.40;;
8466;SDS011;4270;48.148;11.648;2024-01-10T03:08:35;48.77;;;18.07;;
8466;SDS011;4270;48.148;11.648;2024-01-10T03:11:00;42.50;;;18.60;;
8466;SDS011;4270;48.148;11.648;2024-01-10T03:13:25;43.07;;;16.37;;
8466;SDS011;4270;48.148;11.648;2024-01-10T03:15:51;42.90;;;17.93;;
8466;SDS011;4270;48.148;11.648;2024-01-10T03:18:16;38.93;;;15.77;;
8466;SDS011;4270;48.148;11.648;2024-01-10T03:20:41;37.67;;;15.43;;
8466;SDS011;4270;48.148;11.648;2024-01-10T03:23:06;37.90;;;14.90;;
8466;SDS011;4270;48.148;11.648;2024-01-10T03:25:31;37.27;;;17.50;;
8466;SDS011;4270;48.148;11.648;2024-01-10T03:27:57;32.63;;;14.70;;
8466;SDS011;4270;48.148;11.648;2024-01-10T03:30:22;38.50;;;17.40;;
8466;SDS011;4270;48.148;11.648;2024-01-10T03:32:49;39.73;;;16.03;;
8466;SDS011;4270;48.148;11.648;2024-01-10T03:35:14;37.60;;;15.43;;
8466;SDS011;4270;48.148;11.648;2024-01-10T03:37:39;35.43;;;15.60;;
8466;SDS011;4270;48.148;11.648;2024-01-10T03:40:05;43.20;;;17.13;;
8466;SDS011;4270;48.148;11.648;2024-01-10T03:42:30;39.77;;;16.63;;
8466;SDS011;4270;48.148;11.648;2024-01-10T03:44:56;37.87;;;17.23;;
8466;SDS011;4270;48.148;11.648;2024-01-10T03:47:21;39.40;;;17.67;;
8466;SDS011;4270;48.148;11.648;2024-01-10T03:49:46;37.03;;;16.47;;
8466;SDS011;4270;48.148;11.648;2024-01-10T03:52:11;39.73;;;15.23;;
8466;SDS011;4270;48.148;11.648;2024-01-10T03:54:37;38.73;;;16.73;;
8466;SDS011;4270;48.148;11.648;2024-01-10T03:57:04;41.77;;;16.10;;
8466;SDS011;4270;48.148;11.648;2024-01-10T03:59:29;40.07;;;16.67;;
8466;SDS011;4270;48.148;11.648;2024-01-10T04:01:54;38.67;;;16.60;;
8466;SDS011;4270;48.148;11.648;2024-01-10T04:04:19;40.07;;;15.93;;
8466;SDS011;4270;48.148;11.648;2024-01-10T04:06:45;42.50;;;16.67;;
8466;SDS011;4270;48.148;11.648;2024-01-10T04:09:11;35.17;;;15.60;;
8466;SDS011;4270;48.148;11.648;2024-01-10T04:11:37;43.47;;;18.63;;
8466;SDS011;4270;48.148;11.648;2024-01-10T04:14:03;36.93;;;16.83;;
8466;SDS011;4270;48.148;11.648;2024-01-10T04:16:28;36.70;;;14.80;;
8466;SDS011;4270;48.148;11.648;2024-01-10T04:18:54;43.43;;;18.60;;
8466;SDS011;4270;48.148;11.648;2024-01-10T04:21:19;35.07;;;15.17;;
8466;SDS011;4270;48.148;11.648;2024-01-10T04:23:44;39.73;;;16.50;;
8466;SDS011;4270;48.148;11.648;2024-01-10T04:26:09;38.13;;;14.80;;
8466;SDS011;4270;48.148;11.648;2024-01-10T04:28:35;39.53;;;16.40;;
8466;SDS011;4270;48.148;11.648;2024-01-10T04:31:00;32.00;;;14.60;;
8466;SDS011;4270;48.148;11.648;2024-01-10T04:33:25;38.37;;;16.37;;
8466;SDS011;4270;48.148;11.648;2024-01-10T04:35:50;42.07;;;14.80;;
8466;SDS011;4270;48.148;11.648;2024-01-10T04:38:16;36.30;;;15.30;;
8466;SDS011;4270;48.148;11.648;2024-01-10T04:40:41;34.47;;;16.27;;
8466;SDS011;4270;48.148;11.648;2024-01-10T04:43:06;37.43;;;15.60;;
8466;SDS011;4270;48.148;11.648;2024-01-10T04:45:31;35.83;;;15.63;;
8466;SDS011;4270;48.148;11.648;2024-01-10T04:47:57;33.97;;;15.50;;
8466;SDS011;4270;48.148;11.648;2024-01-10T04:50:22;33.20;;;13.37;;
8466;SDS011;4270;48.148;11.648;2024-01-10T04:52:47;40.20;;;16.77;;
8466;SDS011;4270;48.148;11.648;2024-01-10T04:55:12;39.20;;;14.87;;
8466;SDS011;4270;48.148;11.648;2024-01-10T04:57:37;33.40;;;14.77;;
8466;SDS011;4270;48.148;11.648;2024-01-10T05:00:03;38.70;;;15.10;;
8466;SDS011;4270;48.148;11.648;2024-01-10T05:02:29;31.13;;;13.50;;
8466;SDS011;4270;48.148;11.648;2024-01-10T05:04:54;33.17;;;15.23;;
8466;SDS011;4270;48.148;11.648;2024-01-10T05:07:20;34.47;;;14.30;;
8466;SDS011;4270;48.148;11.648;2024-01-10T05:09:45;37.60;;;15.30;;
8466;SDS011;4270;48.148;11.648;2024-01-10T05:12:10;42.90;;;16.10;;
8466;SDS011;4270;48.148;11.648;2024-01-10T05:14:36;40.37;;;15.20;;
8466;SDS011;4270;48.148;11.648;2024-01-10T05:17:01;38.10;;;14.83;;
8466;SDS011;4270;48.148;11.648;2024-01-10T05:19:26;36.83;;;13.60;;
8466;SDS011;4270;48.148;11.648;2024-01-10T05:21:52;34.50;;;15.23;;
8466;SDS011;4270;48.148;11.648;2024-01-10T05:24:19;40.50;;;15.93;;
8466;SDS011;4270;48.148;11.648;2024-01-10T05:26:44;41.03;;;16.57;;
8466;SDS011;4270;48.148;11.648;2024-01-10T05:29:10;42.00;;;16.13;;
8466;SDS011;4270;48.148;11.648;2024-01-10T05:31:35;37.20;;;17.20;;
8466;SDS011;4270;48.148;11.648;2024-01-10T05:34:00;42.23;;;15.87;;
8466;SDS011;4270;48.148;11.648;2024-01-10T05:36:25;41.37;;;15.30;;
8466;SDS011;4270;48.148;11.648;2024-01-10T05:38:51;45.47;;;17.13;;
8466;SDS011;4270;48.148;11.648;2024-01-10T05:41:17;39.97;;;17.20;;
8466;SDS011;4270;48.148;11.648;2024-01-10T05:43:42;41.90;;;17.60;;
8466;SDS011;4270;48.148;11.648;2024-01-10T05:46:09;39.33;;;16.60;;
8466;SDS011;4270;48.148;11.648;2024-01-10T05:48:35;38.67;;;16.40;;
8466;SDS011;4270;48.148;11.648;2024-01-10T05:51:00;50.03;;;17.70;;
8466;SDS011;4270;48.148;11.648;2024-01-10T05:53:26;41.77;;;17.53;;
8466;SDS011;4270;48.148;11.648;2024-01-10T05:55:51;35.40;;;15.73;;
8466;SDS011;4270;48.148;11.648;2024-01-10T05:58:16;37.37;;;15.90;;
8466;SDS011;4270;48.148;11.648;2024-01-10T06:00:42;41.67;;;14.43;;
8466;SDS011;4270;48.148;11.648;2024-01-10T06:03:07;42.30;;;16.13;;
8466;SDS011;4270;48.148;11.648;2024-01-10T06:05:32;44.80;;;15.80;;
8466;SDS011;4270;48.148;11.648;2024-01-10T06:07:58;39.73;;;17.17;;
8466;SDS011;4270;48.148;11.648;2024-01-10T06:10:23;46.70;;;15.67;;
8466;SDS011;4270;48.148;11.648;2024-01-10T06:12:48;36.67;;;15.00;;
8466;SDS011;4270;48.148;11.648;2024-01-10T06:15:14;40.30;;;15.70;;
8466;SDS011;4270;48.148;11.648;2024-01-10T06:17:39;37.63;;;14.40;;
8466;SDS011;4270;48.148;11.648;2024-01-10T06:20:05;37.43;;;14.80;;
8466;SDS011;4270;48.148;11.648;2024-01-10T06:22:31;40.50;;;14.53;;
8466;SDS011;4270;48.148;11.648;2024-01-10T06:24:57;32.33;;;14.50;;
8466;SDS011;4270;48.148;11.648;2024-01-10T06:27:22;37.13;;;14.33;;
8466;SDS011;4270;48.148;11.648;2024-01-10T06:29:47;38.00;;;15.03;;
8466;SDS011;4270;48.148;11.648;2024-01-10T06:32:12;29.60;;;14.00;;
8466;SDS011;4270;48.148;11.648;2024-01-10T06:34:39;33.47;;;14.60;;
8466;SDS011;4270;48.148;11.648;2024-01-10T06:37:04;32.10;;;15.50;;
8466;SDS011;4270;48.148;11.648;2024-01-10T06:39:32;40.87;;;16.83;;
8466;SDS011;4270;48.148;11.648;2024-01-10T06:41:57;31.87;;;15.27;;
8466;SDS011;4270;48.148;11.648;2024-01-10T06:44:23;41.87;;;14.67;;
8466;SDS011;4270;48.148;11.648;2024-01-10T06:46:48;38.20;;;14.70;;
8466;SDS011;4270;48.148;11.648;2024-01-10T06:49:13;29.77;;;13.27;;
8466;SDS011;4270;48.148;11.648;2024-01-10T06:51:38;34.90;;;14.03;;
8466;SDS011;4270;48.148;11.648;2024-01-10T06:54:05;31.67;;;13.63;;
8466;SDS011;4270;48.148;11.648;2024-01-10T06:56:33;42.07;;;16.37;;
8466;SDS011;4270;48.148;11.648;2024-01-10T06:58:59;37.70;;;16.83;;
8466;SDS011;4270;48.148;11.648;2024-01-10T07:01:25;42.90;;;16.07;;
8466;SDS011;4270;48.148;11.648;2024-01-10T07:03:52;37.03;;;15.30;;
8466;SDS011;4270;48.148;11.648;2024-01-10T07:06:25;35.33;;;15.77;;
8466;SDS011;4270;48.148;11.648;2024-01-10T07:08:51;32.73;;;13.93;;
8466;SDS011;4270;48.148;11.648;2024-01-10T07:11:17;39.47;;;14.90;;
8466;SDS011;4270;48.148;11.648;2024-01-10T07:13:42;43.47;;;14.90;;
8466;SDS011;4270;48.148;11.648;2024-01-10T07:16:08;32.03;;;14.33;;
8466;SDS011;4270;48.148;11.648;2024-01-10T07:18:33;35.67;;;13.63;;
8466;SDS011;4270;48.148;11.648;2024-01-10T07:20:58;46.80;;;17.17;;
8466;SDS011;4270;48.148;11.648;2024-01-10T07:23:24;34.07;;;15.63;;
8466;SDS011;4270;48.148;11.648;2024-01-10T07:25:49;33.43;;;13.70;;
8466;SDS011;4270;48.148;11.648;2024-01-10T07:28:15;38.47;;;15.80;;
8466;SDS011;4270;48.148;11.648;2024-01-10T07:30:40;33.13;;;14.10;;
8466;SDS011;4270;48.148;11.648;2024-01-10T07:33:06;39.80;;;14.20;;
8466;SDS011;4270;48.148;11.648;2024-01-10T07:35:32;39.77;;;16.63;;
8466;SDS011;4270;48.148;11.648;2024-01-10T07:37:58;42.53;;;16.73;;
8466;SDS011;4270;48.148;11.648;2024-01-10T07:40:23;39.27;;;15.30;;
8466;SDS011;4270;48.148;11.648;2024-01-10T07:42:48;42.13;;;16.00;;
8466;SDS011;4270;48.148;11.648;2024-01-10T07:45:13;28.93;;;14.43;;
8466;SDS011;4270;48.148;11.648;2024-01-10T07:47:39;40.10;;;15.90;;
8466;SDS011;4270;48.148;11.648;2024-01-10T07:50:05;41.97;;;16.30;;
8466;SDS011;4270;48.148;11.648;2024-01-10T07:52:30;39.57;;;16.93;;
8466;SDS011;4270;48.148;11.648;2024-01-10T07:54:56;47.70;;;17.50;;
8466;SDS011;4270;48.148;11.648;2024-01-10T07:57:22;43.90;;;16.83;;
8466;SDS011;4270;48.148;11.648;2024-01-10T07:59:47;42.67;;;17.43;;
8466;SDS011;4270;48.148;11.648;2024-01-10T08:02:12;39.70;;;16.10;;
8466;SDS011;4270;48.148;11.648;2024-01-10T08:04:38;46.57;;;15.90;;
8466;SDS011;4270;48.148;11.648;2024-01-10T08:07:03;44.30;;;17.93;;
8466;SDS011;4270;48.148;11.648;2024-01-10T08:09:28;38.90;;;16.57;;
8466;SDS011;4270;48.148;11.648;2024-01-10T08:11:53;41.20;;;15.67;;
8466;SDS011;4270;48.148;11.648;2024-01-10T08:14:19;46.23;;;17.93;;
8466;SDS011;4270;48.148;11.648;2024-01-10T08:16:44;36.23;;;15.50;;
8466;SDS011;4270;48.148;11.648;2024-01-10T08:19:10;36.67;;;14.57;;
8466;SDS011;4270;48.148;11.648;2024-01-10T08:21:36;42.30;;;16.43;;
8466;SDS011;4270;48.148;11.648;2024-01-10T08:24:02;37.53;;;15.90;;
8466;SDS011;4270;48.148;11.648;2024-01-10T08:26:27;40.33;;;16.40;;
8466;SDS011;4270;48.148;11.648;2024-01-10T08:28:53;41.93;;;17.30;;
8466;SDS011;4270;48.148;11.648;2024-01-10T08:31:18;33.63;;;14.90;;
8466;SDS011;4270;48.148;11.648;2024-01-10T08:33:43;41.50;;;15.07;;
8466;SDS011;4270;48.148;11.648;2024-01-10T08:36:09;44.60;;;16.37;;
8466;SDS011;4270;48.148;11.648;2024-01-10T08:38:37;35.67;;;15.40;;
8466;SDS011;4270;48.148;11.648;2024-01-10T08:41:02;39.13;;;16.63;;
8466;SDS011;4270;48.148;11.648;2024-01-10T08:43:28;46.77;;;18.40;;
8466;SDS011;4270;48.148;11.648;2024-01-10T08:45:54;43.03;;;18.70;;
8466;SDS011;4270;48.148;11.648;2024-01-10T08:48:19;48.23;;;17.77;;
8466;SDS011;4270;48.148;11.648;2024-01-10T08:50:44;48.97;;;18.00;;
8466;SDS011;4270;48.148;11.648;2024-01-10T08:53:10;51.57;;;19.87;;
8466;SDS011;4270;48.148;11.648;2024-01-10T08:55:35;44.73;;;17.87;;
8466;SDS011;4270;48.148;11.648;2024-01-10T08:58:02;44.50;;;19.07;;
8466;SDS011;4270;48.148;11.648;2024-01-10T09:00:27;44.40;;;18.80;;
8466;SDS011;4270;48.148;11.648;2024-01-10T09:02:53;51.07;;;18.13;;
8466;SDS011;4270;48.148;11.648;2024-01-10T09:05:18;41.27;;;18.07;;
8466;SDS011;4270;48.148;11.648;2024-01-10T09:07:44;44.40;;;17.63;;
8466;SDS011;4270;48.148;11.648;2024-01-10T09:10:09;47.10;;;20.13;;
8466;SDS011;4270;48.148;11.648;2024-01-10T09:12:34;39.27;;;17.00;;
8466;SDS011;4270;48.148;11.648;2024-01-10T09:15:00;44.23;;;17.40;;
8466;SDS011;4270;48.148;11.648;2024-01-10T09:17:25;48.27;;;19.20;;
8466;SDS011;4270;48.148;11.648;2024-01-10T09:19:51;40.20;;;16.17;;
8466;SDS011;4270;48.148;11.648;2024-01-10T09:22:16;44.47;;;17.00;;
8466;SDS011;4270;48.148;11.648;2024-01-10T09:24:41;42.60;;;17.27;;
8466;SDS011;4270;48.148;11.648;2024-01-10T09:27:06;42.57;;;17.33;;
8466;SDS011;4270;48.148;11.648;2024-01-10T09:29:32;42.90;;;17.77;;
8466;SDS011;4270;48.148;11.648;2024-01-10T09:31:57;38.57;;;18.10;;
8466;SDS011;4270;48.148;11.648;2024-01-10T09:34:23;47.33;;;18.13;;
8466;SDS011;4270;48.148;11.648;2024-01-10T09:36:48;42.60;;;17.00;;
8466;SDS011;4270;48.148;11.648;2024-01-10T09:39:13;48.07;;;18.97;;
8466;SDS011;4270;48.148;11.648;2024-01-10T09:41:48;41.90;;;17.87;;
8466;SDS011;4270;48.148;11.648;2024-01-10T09:44:15;39.77;;;17.30;;
8466;SDS011;4270;48.148;11.648;2024-01-10T09:46:43;51.80;;;19.83;;
8466;SDS011;4270;48.148;11.648;2024-01-10T09:49:08;45.87;;;18.83;;
8466;SDS011;4270;48.148;11.648;2024-01-10T09:51:34;38.90;;;18.03;;
8466;SDS011;4270;48.148;11.648;2024-01-10T09:53:59;44.83;;;17.30;;
8466;SDS011;4270;48.148;11.648;2024-01-10T09:56:26;42.83;;;19.80;;
8466;SDS011;4270;48.148;11.648;2024-01-10T09:59:01;48.23;;;18.63;;
8466;SDS011;4270;48.148;11.648;2024-01-10T10:01:26;53.77;;;21.73;;
8466;SDS011;4270;48.148;11.648;2024-01-10T10:03:52;44.33;;;17.40;;
8466;SDS011;4270;48.148;11.648;2024-01-10T10:06:18;51.30;;;20.97;;
8466;SDS011;4270;48.148;11.648;2024-01-10T10:08:43;45.80;;;18.20;;
8466;SDS011;4270;48.148;11.648;2024-01-10T10:11:12;48.23;;;19.83;;
8466;SDS011;4270;48.148;11.648;2024-01-10T10:13:39;41.57;;;18.63;;
8466;SDS011;4270;48.148;11.648;2024-01-10T10:16:06;44.00;;;17.50;;
8466;SDS011;4270;48.148;11.648;2024-01-10T10:18:33;51.43;;;19.53;;
8466;SDS011;4270;48.148;11.648;2024-01-10T10:21:09;47.07;;;18.80;;
8466;SDS011;4270;48.148;11.648;2024-01-10T10:23:35;43.07;;;18.30;;
8466;SDS011;4270;48.148;11.648;2024-01-10T10:26:09;50.23;;;20.10;;
8466;SDS011;4270;48.148;11.648;2024-01-10T10:28:34;55.00;;;20.10;;
8466;SDS011;4270;48.148;11.648;2024-01-10T10:31:00;43.43;;;20.07;;
8466;SDS011;4270;48.148;11.648;2024-01-10T10:33:25;54.10;;;20.27;;
8466;SDS011;4270;48.148;11.648;2024-01-10T10:35:50;49.93;;;21.40;;
8466;SDS011;4270;48.148;11.648;2024-01-10T10:38:15;49.03;;;19.57;;
8466;SDS011;4270;48.148;11.648;2024-01-10T10:40:41;44.90;;;19.77;;
8466;SDS011;4270;48.148;11.648;2024-01-10T10:43:06;48.43;;;20.90;;
8466;SDS011;4270;48.148;11.648;2024-01-10T10:45:35;49.67;;;21.73;;
8466;SDS011;4270;48.148;11.648;2024-01-10T10:48:01;50.13;;;20.50;;
8466;SDS011;4270;48.148;11.648;2024-01-10T10:50:33;41.60;;;18.63;;
8466;SDS011;4270;48.148;11.648;2024-01-10T10:52:58;48.80;;;19.93;;
8466;SDS011;4270;48.148;11.648;2024-01-10T10:55:23;45.33;;;20.13;;
8466;SDS011;4270;48.148;11.648;2024-01-10T10:57:49;46.80;;;20.37;;
8466;SDS011;4270;48.148;11.648;2024-01-10T11:00:16;49.77;;;21.07;;
8466;SDS011;4270;48.148;11.648;2024-01-10T11:02:42;45.20;;;19.83;;
8466;SDS011;4270;48.148;11.648;2024-01-10T11:05:10;47.67;;;20.80;;
8466;SDS011;4270;48.148;11.648;2024-01-10T11:07:40;52.20;;;21.27;;
8466;SDS011;4270;48.148;11.648;2024-01-10T11:10:10;41.17;;;19.77;;
8466;SDS011;4270;48.148;11.648;2024-01-10T11:15:24;44.47;;;18.30;;
8466;SDS011;4270;48.148;11.648;2024-01-10T11:18:02;47.50;;;19.47;;
8466;SDS011;4270;48.148;11.648;2024-01-10T11:25:36;50.13;;;20.03;;
8466;SDS011;4270;48.148;11.648;2024-01-10T11:28:04;47.13;;;21.00;;
8466;SDS011;4270;48.148;11.648;2024-01-10T11:30:32;43.80;;;20.20;;
8466;SDS011;4270;48.148;11.648;2024-01-10T11:33:00;57.47;;;21.27;;
8466;SDS011;4270;48.148;11.648;2024-01-10T11:35:25;61.43;;;22.43;;
8466;SDS011;4270;48.148;11.648;2024-01-10T11:37:51;50.27;;;20.60;;
8466;SDS011;4270;48.148;11.648;2024-01-10T11:40:16;50.87;;;20.73;;
8466;SDS011;4270;48.148;11.648;2024-01-10T11:42:48;52.63;;;21.37;;
8466;SDS011;4270;48.148;11.648;2024-01-10T11:47:59;47.40;;;19.23;;
8466;SDS011;4270;48.148;11.648;2024-01-10T11:50:24;43.53;;;20.00;;
8466;SDS011;4270;48.148;11.648;2024-01-10T11:52:52;47.77;;;19.43;;
8466;SDS011;4270;48.148;11.648;2024-01-10T11:58:08;55.23;;;20.93;;
8466;SDS011;4270;48.148;11.648;2024-01-10T12:00:34;48.00;;;21.73;;
8466;SDS011;4270;48.148;11.648;2024-01-10T12:03:00;41.60;;;19.73;;
8466;SDS011;4270;48.148;11.648;2024-01-10T12:05:26;46.97;;;18.70;;
8466;SDS011;4270;48.148;11.648;2024-01-10T12:07:51;45.90;;;20.00;;
8466;SDS011;4270;48.148;11.648;2024-01-10T12:10:17;47.90;;;20.30;;
8466;SDS011;4270;48.148;11.648;2024-01-10T12:12:42;47.30;;;19.70;;
8466;SDS011;4270;48.148;11.648;2024-01-10T12:15:07;50.30;;;18.80;;
8466;SDS011;4270;48.148;11.648;2024-01-10T12:17:35;50.97;;;18.97;;
8466;SDS011;4270;48.148;11.648;2024-01-10T12:20:04;49.40;;;21.47;;
8466;SDS011;4270;48.148;11.648;2024-01-10T12:22:31;51.90;;;19.70;;
8466;SDS011;4270;48.148;11.648;2024-01-10T12:24:56;47.07;;;20.43;;
8466;SDS011;4270;48.148;11.648;2024-01-10T12:27:29;49.40;;;20.17;;
8466;SDS011;4270;48.148;11.648;2024-01-10T12:29:55;51.83;;;22.00;;
8466;SDS011;4270;48.148;11.648;2024-01-10T12:32:21;47.67;;;19.87;;
8466;SDS011;4270;48.148;11.648;2024-01-10T12:34:47;49.77;;;18.60;;
8466;SDS011;4270;48.148;11.648;2024-01-10T12:37:12;46.43;;;17.97;;
8466;SDS011;4270;48.148;11.648;2024-01-10T12:39:38;49.40;;;19.37;;
8466;SDS011;4270;48.148;11.648;2024-01-10T12:42:03;47.97;;;18.53;;
8466;SDS011;4270;48.148;11.648;2024-01-10T12:44:32;49.30;;;20.30;;
8466;SDS011;4270;48.148;11.648;2024-01-10T12:46:57;52.67;;;19.73;;
8466;SDS011;4270;48.148;11.648;2024-01-10T12:49:23;40.70;;;19.20;;
8466;SDS011;4270;48.148;11.648;2024-01-10T12:51:48;48.80;;;18.93;;
8466;SDS011;4270;48.148;11.648;2024-01-10T12:54:14;48.13;;;20.03;;
8466;SDS011;4270;48.148;11.648;2024-01-10T12:56:39;51.27;;;19.60;;
8466;SDS011;4270;48.148;11.648;2024-01-10T12:59:04;55.93;;;22.40;;
8466;SDS011;4270;48.148;11.648;2024-01-10T13:01:30;52.50;;;21.43;;
8466;SDS011;4270;48.148;11.648;2024-01-10T13:03:55;50.47;;;19.40;;
8466;SDS011;4270;48.148;11.648;2024-01-10T13:06:21;53.87;;;21.63;;
8466;SDS011;4270;48.148;11.648;2024-01-10T13:08:47;46.33;;;20.10;;
8466;SDS011;4270;48.148;11.648;2024-01-10T13:11:13;48.43;;;20.40;;
8466;SDS011;4270;48.148;11.648;2024-01-10T13:13:39;53.60;;;21.73;;
8466;SDS011;4270;48.148;11.648;2024-01-10T13:16:05;50.33;;;20.67;;
8466;SDS011;4270;48.148;11.648;2024-01-10T13:18:30;47.80;;;19.77;;
8466;SDS011;4270;48.148;11.648;2024-01-10T13:20:55;44.83;;;18.90;;
8466;SDS011;4270;48.148;11.648;2024-01-10T13:23:21;46.33;;;18.07;;
8466;SDS011;4270;48.148;11.648;2024-01-10T13:25:51;47.17;;;18.37;;
8466;SDS011;4270;48.148;11.648;2024-01-10T13:28:20;47.97;;;19.23;;
8466;SDS011;4270;48.148;11.648;2024-01-10T13:30:45;42.07;;;17.73;;
8466;SDS011;4270;48.148;11.648;2024-01-10T13:33:10;43.27;;;19.40;;
8466;SDS011;4270;48.148;11.648;2024-01-10T13:35:36;48.13;;;18.90;;
8466;SDS011;4270;48.148;11.648;2024-01-10T13:38:01;45.73;;;19.07;;
8466;SDS011;4270;48.148;11.648;2024-01-10T13:40:27;59.93;;;21.47;;
8466;SDS011;4270;48.148;11.648;2024-01-10T13:42:52;50.90;;;18.07;;
8466;SDS011;4270;48.148;11.648;2024-01-10T13:45:18;52.00;;;21.20;;
8466;SDS011;4270;48.148;11.648;2024-01-10T13:47:43;55.30;;;21.00;;
8466;SDS011;4270;48.148;11.648;2024-01-10T13:50:08;48.00;;;18.53;;
8466;SDS011;4270;48.148;11.648;2024-01-10T13:52:34;53.23;;;19.80;;
8466;SDS011;4270;48.148;11.648;2024-01-10T13:55:00;44.40;;;18.00;;
8466;SDS011;4270;48.148;11.648;2024-01-10T13:57:25;45.60;;;17.47;;
8466;SDS011;4270;48.148;11.648;2024-01-10T13:59:50;46.60;;;18.90;;
8466;SDS011;4270;48.148;11.648;2024-01-10T14:02:16;43.87;;;16.93;;
8466;SDS011;4270;48.148;11.648;2024-01-10T14:04:43;53.87;;;19.07;;
8466;SDS011;4270;48.148;11.648;2024-01-10T14:07:09;45.30;;;17.23;;
8466;SDS011;4270;48.148;11.648;2024-01-10T14:09:35;52.63;;;19.73;;
8466;SDS011;4270;48.148;11.648;2024-01-10T14:12:00;52.67;;;20.10;;
8466;SDS011;4270;48.148;11.648;2024-01-10T14:14:25;45.40;;;19.70;;
8466;SDS011;4270;48.148;11.648;2024-01-10T14:16:50;48.50;;;20.07;;
8466;SDS011;4270;48.148;11.648;2024-01-10T14:19:15;48.47;;;20.33;;
8466;SDS011;4270;48.148;11.648;2024-01-10T14:21:42;49.83;;;18.60;;
8466;SDS011;4270;48.148;11.648;2024-01-10T14:24:07;50.97;;;19.23;;
8466;SDS011;4270;48.148;11.648;2024-01-10T14:26:32;48.40;;;18.57;;
8466;SDS011;4270;48.148;11.648;2024-01-10T14:28:58;57.60;;;19.07;;
8466;SDS011;4270;48.148;11.648;2024-01-10T14:31:24;52.73;;;18.70;;
8466;SDS011;4270;48.148;11.648;2024-01-10T14:33:49;50.67;;;17.70;;
8466;SDS011;4270;48.148;11.648;2024-01-10T14:36:15;49.13;;;19.53;;
8466;SDS011;4270;48.148;11.648;2024-01-10T14:38:40;61.83;;;19.53;;
8466;SDS011;4270;48.148;11.648;2024-01-10T14:41:06;56.07;;;20.27;;